Time;durP1;ratioP1;P1;durP2;ratioP2;P2;SDS_P1;SDS_P2;PMS_P1;PMS_P2;Temp;Humidity;BMP_temperature;BMP_pressure;BME280_temperature;BME280_humidity;BME280_pressure;Samples;Min_cycle;Max_cycle;Signal;HPM_P1;HPM_P2
2022/05/21 00:02:03;;;;;;;8.80;3.35;;;12.40;99.90;;;;;;5075777;28;20037;-78
2022/05/21 00:04:29;;;;;;;17.77;3.70;;;12.40;99.90;;;;;;5091298;28;20028;-76
2022/05/21 00:06:57;;;;;;;11.80;3.33;;;12.50;99.90;;;;;;5095626;28;20035;-77
2022/05/21 00:09:24;;;;;;;11.85;3.20;;;12.30;99.90;;;;;;5095764;28;20032;-78
2022/05/21 00:11:50;;;;;;;12.65;3.25;;;12.30;99.90;;;;;;5096109;28;20024;-77
2022/05/21 00:14:16;;;;;;;9.68;3.13;;;12.40;99.90;;;;;;5095387;28;20040;-77
2022/05/21 00:16:42;;;;;;;10.40;2.63;;;12.40;99.90;;;;;;5095596;28;20530;-74
2022/05/21 00:19:08;;;;;;;6.22;2.63;;;12.30;99.90;;;;;;5095115;28;20032;-79
2022/05/21 00:21:34;;;;;;;11.38;3.30;;;12.30;99.90;;;;;;5094335;28;20031;-75
2022/05/21 00:24:00;;;;;;;8.93;3.33;;;12.30;99.90;;;;;;5095577;28;20024;-78
2022/05/21 00:26:26;;;;;;;9.25;3.20;;;12.30;99.90;;;;;;5095746;28;20039;-78
2022/05/21 00:28:52;;;;;;;15.65;3.50;;;12.30;99.90;;;;;;5096009;28;20085;-78
2022/05/21 00:31:18;;;;;;;13.32;3.55;;;12.40;99.90;;;;;;5095894;28;20055;-78
2022/05/21 00:33:46;;;;;;;16.48;2.88;;;12.30;99.90;;;;;;5096365;28;20027;-78
2022/05/21 00:36:13;;;;;;;16.50;5.05;;;12.30;99.90;;;;;;5095504;28;20032;-78
2022/05/21 00:38:40;;;;;;;9.60;2.65;;;12.40;99.90;;;;;;5094576;28;20027;-78
2022/05/21 00:41:08;;;;;;;11.38;2.80;;;12.30;99.90;;;;;;5095090;28;20032;-78
2022/05/21 00:43:49;;;;;;;13.20;3.08;;;12.40;99.90;;;;;;5095219;28;20024;-78
2022/05/21 00:46:21;;;;;;;13.90;3.63;;;12.40;99.90;;;;;;5095030;28;20028;-79
2022/05/21 00:49:16;;;;;;;13.13;3.42;;;12.30;99.90;;;;;;5074594;28;20090;-78
2022/05/21 00:51:51;;;;;;;12.75;2.90;;;12.30;99.90;;;;;;5073845;28;20059;-78
2022/05/21 00:54:21;;;;;;;17.75;3.25;;;12.50;99.90;;;;;;5074656;28;20028;-78
2022/05/21 00:56:56;;;;;;;10.75;3.17;;;12.50;99.90;;;;;;5073227;28;20089;-77
2022/05/21 01:02:08;;;;;;;15.63;3.67;;;12.30;99.90;;;;;;5074539;28;20032;-79
2022/05/21 01:04:35;;;;;;;18.65;3.65;;;12.30;99.90;;;;;;5090947;28;20089;-78
2022/05/21 01:07:03;;;;;;;12.45;2.95;;;12.30;99.90;;;;;;5094818;28;20028;-78
2022/05/21 01:09:29;;;;;;;12.38;2.58;;;12.40;99.90;;;;;;5094518;28;20051;-78
2022/05/21 01:11:56;;;;;;;19.45;3.33;;;12.40;99.90;;;;;;5094524;28;20035;-78
2022/05/21 01:14:22;;;;;;;12.48;3.05;;;12.30;99.90;;;;;;5094506;28;20036;-78
2022/05/21 01:16:50;;;;;;;12.40;2.97;;;12.40;99.90;;;;;;5094225;28;20630;-78
2022/05/21 01:19:16;;;;;;;17.45;3.20;;;12.40;99.90;;;;;;5094112;28;20095;-78
2022/05/21 01:21:43;;;;;;;13.32;3.50;;;12.40;99.90;;;;;;5092974;28;20028;-78
2022/05/21 01:24:11;;;;;;;19.60;3.17;;;12.40;99.90;;;;;;5094376;28;20063;-77
2022/05/21 01:26:38;;;;;;;14.85;2.72;;;12.30;99.90;;;;;;5094284;28;20038;-78
2022/05/21 01:29:11;;;;;;;21.30;3.63;;;12.30;99.90;;;;;;5094234;28;20073;-78
2022/05/21 01:31:37;;;;;;;15.13;3.10;;;12.40;99.90;;;;;;5093999;28;20376;-78
2022/05/21 01:34:04;;;;;;;21.80;3.13;;;12.50;99.90;;;;;;5094070;28;20082;-78
2022/05/21 01:36:30;;;;;;;35.50;5.10;;;12.40;99.90;;;;;;5094272;28;20111;-78
2022/05/21 01:38:57;;;;;;;15.88;3.50;;;12.30;99.90;;;;;;5094170;28;20060;-78
2022/05/21 01:41:23;;;;;;;11.82;2.85;;;12.40;99.90;;;;;;5094065;28;20485;-78
2022/05/21 01:46:33;;;;;;;16.40;2.97;;;12.50;99.90;;;;;;5091591;28;20032;-78
2022/05/21 01:48:59;;;;;;;15.25;3.50;;;12.60;99.90;;;;;;5073612;28;20032;-78
2022/05/21 01:51:24;;;;;;;10.73;2.78;;;12.50;99.90;;;;;;5073378;28;20020;-78
2022/05/21 01:53:50;;;;;;;23.48;3.20;;;12.60;99.90;;;;;;5073508;28;20111;-78
2022/05/21 01:56:16;;;;;;;19.80;4.03;;;12.50;99.90;;;;;;5073361;28;20036;-78
2022/05/21 01:58:43;;;;;;;22.55;3.95;;;12.40;99.90;;;;;;5072187;28;20491;-77
2022/05/21 02:01:10;;;;;;;17.92;3.97;;;12.50;99.90;;;;;;5073178;28;20095;-77
2022/05/21 02:03:36;;;;;;;17.10;4.13;;;12.50;99.90;;;;;;5081803;28;20057;-78
2022/05/21 02:06:02;;;;;;;17.63;3.38;;;12.60;99.90;;;;;;5093374;28;20115;-77
2022/05/21 02:08:28;;;;;;;13.73;3.78;;;12.40;99.90;;;;;;5092228;28;20028;-78
2022/05/21 02:10:54;;;;;;;18.35;3.58;;;12.30;99.90;;;;;;5093326;28;20035;-78
2022/05/21 02:13:23;;;;;;;18.50;3.95;;;12.40;99.90;;;;;;5093328;28;20031;-78
2022/05/21 02:15:49;;;;;;;15.55;3.92;;;12.40;99.90;;;;;;5092880;28;20031;-78
2022/05/21 02:18:16;;;;;;;13.02;3.15;;;12.40;99.90;;;;;;5092014;28;20038;-79
2022/05/21 02:20:42;;;;;;;17.92;3.75;;;12.30;99.90;;;;;;5093365;28;20042;-79
2022/05/21 02:23:09;;;;;;;15.15;3.25;;;12.40;99.90;;;;;;5084430;28;20024;-78
2022/05/21 02:25:35;;;;;;;18.85;4.25;;;12.50;99.90;;;;;;5071735;28;20369;-78
2022/05/21 02:28:01;;;;;;;18.45;4.07;;;12.40;99.90;;;;;;5072873;28;20115;-78
2022/05/21 02:30:27;;;;;;;18.73;4.05;;;12.40;99.90;;;;;;5072714;28;20431;-78
2022/05/21 02:32:54;;;;;;;8.63;2.90;;;12.50;99.90;;;;;;5072941;28;20032;-78
2022/05/21 02:35:20;;;;;;;15.18;3.70;;;12.20;99.90;;;;;;5072977;28;20040;-78
2022/05/21 02:40:31;;;;;;;17.70;3.33;;;12.30;99.90;;;;;;5072998;28;20028;-79
2022/05/21 02:42:57;;;;;;;17.38;3.97;;;12.20;99.90;;;;;;5072645;28;20031;-78
2022/05/21 02:45:25;;;;;;;18.30;4.05;;;12.20;99.90;;;;;;5072707;28;20060;-78
2022/05/21 02:47:54;;;;;;;25.60;4.22;;;12.40;99.90;;;;;;5054811;28;20021;-77
2022/05/21 02:50:23;;;;;;;17.80;5.03;;;12.50;99.90;;;;;;5072923;28;20107;-78
2022/05/21 02:52:49;;;;;;;21.25;4.55;;;12.60;99.90;;;;;;5072581;28;20032;-79
2022/05/21 02:55:16;;;;;;;18.60;4.70;;;12.50;99.90;;;;;;5072563;28;20036;-78
2022/05/21 02:57:42;;;;;;;21.67;4.53;;;12.60;99.90;;;;;;5072542;28;20112;-78
2022/05/21 03:00:15;;;;;;;21.52;7.00;;;12.60;99.90;;;;;;5072646;28;20040;-78
2022/05/21 03:02:41;;;;;;;26.38;8.20;;;12.40;99.90;;;;;;5072180;28;20077;-78
2022/05/21 03:05:07;;;;;;;28.45;8.85;;;12.30;99.90;;;;;;5092736;28;20102;-78
2022/05/21 03:07:42;;;;;;;24.85;8.35;;;12.40;99.90;;;;;;5091703;28;20057;-78
2022/05/21 03:10:22;;;;;;;30.50;8.43;;;12.40;99.90;;;;;;5091520;28;20031;-78
2022/05/21 03:12:51;;;;;;;31.23;9.82;;;12.50;99.90;;;;;;5091324;28;20474;-78
2022/05/21 03:15:17;;;;;;;29.58;9.55;;;12.40;99.90;;;;;;5092260;28;20048;-78
2022/05/21 03:17:46;;;;;;;32.80;11.80;;;12.50;99.90;;;;;;5092819;28;20036;-78
2022/05/21 03:20:14;;;;;;;38.35;12.05;;;12.30;99.90;;;;;;5092583;28;20024;-77
2022/05/21 03:22:41;;;;;;;39.42;12.50;;;12.30;99.90;;;;;;5095409;28;20035;-79
2022/05/21 03:25:09;;;;;;;32.88;12.35;;;12.30;99.90;;;;;;5096631;28;20459;-77
2022/05/21 03:27:35;;;;;;;26.40;11.55;;;12.40;99.90;;;;;;5096410;28;20106;-78
2022/05/21 03:30:02;;;;;;;39.55;13.13;;;12.40;99.90;;;;;;5095323;28;20468;-78
2022/05/21 03:32:28;;;;;;;42.15;13.38;;;12.40;99.90;;;;;;5096620;28;20039;-78
2022/05/21 03:34:54;;;;;;;43.38;13.23;;;12.30;99.90;;;;;;5096018;28;20044;-78
2022/05/21 03:37:19;;;;;;;32.17;13.18;;;12.30;99.90;;;;;;5096388;28;20023;-77
2022/05/21 03:39:45;;;;;;;38.25;12.75;;;12.20;99.90;;;;;;5096354;28;20046;-78
2022/05/21 03:42:11;;;;;;;40.13;14.13;;;12.30;99.90;;;;;;5096442;28;20031;-78
2022/05/21 03:44:37;;;;;;;38.78;12.77;;;12.40;99.90;;;;;;5094802;28;20385;-77
2022/05/21 03:47:03;;;;;;;31.45;11.82;;;12.30;99.90;;;;;;5090137;28;20496;-75
2022/05/21 03:49:30;;;;;;;33.42;11.95;;;12.40;99.90;;;;;;5075724;28;20062;-78
2022/05/21 03:51:55;;;;;;;41.20;11.73;;;12.40;99.90;;;;;;5075845;28;20036;-78
2022/05/21 03:54:21;;;;;;;35.95;12.32;;;12.60;99.90;;;;;;5075703;28;20093;-77
2022/05/21 03:56:47;;;;;;;27.88;9.88;;;12.40;99.90;;;;;;5075537;28;20465;-78
2022/05/21 03:59:13;;;;;;;31.45;10.10;;;12.30;99.90;;;;;;5075519;28;20036;-79
2022/05/21 04:01:41;;;;;;;34.15;9.35;;;12.30;99.90;;;;;;5075692;28;20040;-78
2022/05/21 04:04:07;;;;;;;37.50;9.38;;;12.40;99.90;;;;;;5088383;28;20021;-78
2022/05/21 04:06:33;;;;;;;36.88;9.82;;;12.20;99.90;;;;;;5095789;28;20350;-78
2022/05/21 04:08:59;;;;;;;37.50;10.57;;;12.20;99.90;;;;;;5095742;28;20108;-75
2022/05/21 04:11:25;;;;;;;35.17;10.95;;;12.30;99.90;;;;;;5095714;28;20028;-79
2022/05/21 04:13:51;;;;;;;32.03;11.18;;;12.40;99.90;;;;;;5095724;28;20024;-77
2022/05/21 04:16:17;;;;;;;39.95;13.43;;;12.50;99.90;;;;;;5095399;28;20130;-77
2022/05/21 04:18:42;;;;;;;33.72;12.95;;;12.60;99.90;;;;;;5095609;28;20091;-75
2022/05/21 04:21:10;;;;;;;46.90;14.00;;;12.70;99.90;;;;;;5095561;28;20024;-77
2022/05/21 04:23:35;;;;;;;39.55;14.35;;;12.50;99.90;;;;;;5095463;28;20099;-78
2022/05/21 04:26:01;;;;;;;40.90;14.25;;;12.60;99.90;;;;;;5095209;28;20103;-78
2022/05/21 04:28:29;;;;;;;42.03;14.27;;;12.40;99.90;;;;;;5094368;28;20396;-78
2022/05/21 04:30:55;;;;;;;39.30;14.35;;;12.30;99.90;;;;;;5095404;28;20056;-78
2022/05/21 04:33:21;;;;;;;29.15;13.52;;;12.30;99.90;;;;;;5094087;28;20075;-78
2022/05/21 04:38:34;;;;;;;38.08;13.68;;;12.30;99.90;;;;;;5095313;28;20064;-78
2022/05/21 04:41:00;;;;;;;37.50;12.68;;;12.30;99.90;;;;;;5094875;28;20055;-78
2022/05/21 04:43:28;;;;;;;35.80;13.30;;;12.30;99.90;;;;;;5095346;28;20031;-78
2022/05/21 04:45:55;;;;;;;43.72;14.63;;;12.40;99.90;;;;;;5094840;28;20103;-78
2022/05/21 04:48:21;;;;;;;33.50;12.95;;;12.40;99.90;;;;;;5078170;28;20028;-78
2022/05/21 04:50:46;;;;;;;45.92;13.73;;;12.50;99.90;;;;;;5073456;28;20083;-78
2022/05/21 04:53:12;;;;;;;30.10;12.20;;;12.70;99.90;;;;;;5074577;28;20028;-78
2022/05/21 04:55:38;;;;;;;40.85;13.77;;;12.50;99.90;;;;;;5074293;28;20474;-78
2022/05/21 04:58:04;;;;;;;37.65;14.32;;;12.40;99.90;;;;;;5074634;28;20140;-78
2022/05/21 05:00:30;;;;;;;37.88;14.32;;;12.60;99.90;;;;;;5056484;28;20028;-78
2022/05/21 05:02:55;;;;;;;31.40;12.52;;;12.50;99.90;;;;;;5077634;28;20388;-79
2022/05/21 05:05:22;;;;;;;44.47;13.73;;;12.60;99.90;;;;;;5094504;28;20028;-77
2022/05/21 05:07:48;;;;;;;39.75;13.52;;;12.60;99.90;;;;;;5094627;28;20606;-78
2022/05/21 05:10:15;;;;;;;43.80;14.77;;;12.70;99.90;;;;;;5094483;28;20069;-77
2022/05/21 05:12:41;;;;;;;34.20;12.60;;;12.80;99.90;;;;;;5094630;28;20035;-79
2022/05/21 05:15:07;;;;;;;42.10;13.02;;;12.90;99.90;;;;;;5094319;28;20024;-78
2022/05/21 05:17:33;;;;;;;35.25;13.55;;;12.90;99.90;;;;;;5094247;28;20533;-78
2022/05/21 05:20:00;;;;;;;38.40;13.52;;;13.10;99.90;;;;;;5094593;28;20032;-76
2022/05/21 05:22:26;;;;;;;32.28;12.63;;;13.00;99.90;;;;;;5094434;28;20028;-77
2022/05/21 05:24:52;;;;;;;41.67;13.70;;;13.10;99.90;;;;;;5093978;28;20557;-76
2022/05/21 05:27:19;;;;;;;38.42;13.27;;;13.10;99.90;;;;;;5094248;28;20024;-77
2022/05/21 05:29:45;;;;;;;31.45;11.35;;;13.00;99.90;;;;;;5094254;28;20439;-79
2022/05/21 05:32:11;;;;;;;44.72;13.13;;;12.90;99.90;;;;;;5094209;28;20032;-75
2022/05/21 05:34:37;;;;;;;37.90;13.40;;;13.00;99.90;;;;;;5094031;28;20028;-77
2022/05/21 05:37:03;;;;;;;37.22;13.48;;;13.10;99.90;;;;;;5093999;28;20484;-73
2022/05/21 05:39:30;;;;;;;35.63;11.85;;;13.20;99.90;;;;;;5094298;28;20385;-76
2022/05/21 05:41:57;;;;;;;34.33;12.73;;;13.50;99.90;;;;;;5093900;28;20028;-78
2022/05/21 05:44:23;;;;;;;39.88;13.50;;;13.70;99.90;;;;;;5093625;28;20020;-77
2022/05/21 05:46:49;;;;;;;33.22;12.00;;;13.80;99.90;;;;;;5089754;28;20048;-78
2022/05/21 05:49:15;;;;;;;36.60;12.75;;;13.60;99.90;;;;;;5073515;28;20477;-78
2022/05/21 05:51:41;;;;;;;39.88;14.07;;;13.50;99.90;;;;;;5073559;28;20484;-78
2022/05/21 05:54:07;;;;;;;35.22;12.27;;;13.70;99.90;;;;;;5073186;28;20036;-79
2022/05/21 05:56:32;;;;;;;37.95;11.82;;;13.70;99.90;;;;;;5073231;28;20028;-78
2022/05/21 06:01:43;;;;;;;32.30;11.73;;;13.80;99.90;;;;;;5073512;28;20374;-78
2022/05/21 06:04:09;;;;;;;44.13;12.68;;;13.80;99.90;;;;;;5085409;28;20032;-78
2022/05/21 06:06:35;;;;;;;33.13;11.57;;;13.80;99.90;;;;;;5093714;28;20473;-77
2022/05/21 06:09:01;;;;;;;41.63;12.02;;;13.60;99.90;;;;;;5093459;28;20133;-77
2022/05/21 06:11:27;;;;;;;38.75;9.38;;;13.70;99.90;;;;;;5092466;28;20411;-76
2022/05/21 06:13:53;;;;;;;40.63;10.70;;;13.90;99.90;;;;;;5102030;28;20494;-78
2022/05/21 06:16:18;;;;;;;26.95;9.43;;;13.80;99.90;;;;;;5098319;28;20058;-78
2022/05/21 06:18:44;;;;;;;32.95;9.23;;;14.10;99.90;;;;;;5109586;28;20051;-76
2022/05/21 06:21:10;;;;;;;38.33;10.80;;;14.20;99.90;;;;;;5098332;28;20094;-77
2022/05/21 06:23:37;;;;;;;30.42;8.80;;;14.40;99.90;;;;;;5103553;28;20027;-77
2022/05/21 06:26:03;;;;;;;34.35;9.10;;;14.40;99.90;;;;;;5105438;28;20114;-77
2022/05/21 06:28:29;;;;;;;35.38;10.50;;;14.50;99.90;;;;;;5096790;28;20058;-77
2022/05/21 06:30:57;;;;;;;26.52;8.38;;;14.30;99.90;;;;;;5109337;28;20449;-76
2022/05/21 06:33:26;;;;;;;37.22;9.48;;;14.50;99.90;;;;;;5099776;28;20054;-78
2022/05/21 06:36:10;;;;;;;37.63;9.25;;;14.50;99.90;;;;;;5101206;28;20032;-76
2022/05/21 06:38:37;;;;;;;27.52;9.40;;;14.80;99.90;;;;;;5109111;28;20042;-77
2022/05/21 06:41:03;;;;;;;42.20;13.90;;;14.50;99.90;;;;;;5084304;28;20098;-77
2022/05/21 06:43:29;;;;;;;38.80;10.95;;;14.50;99.90;;;;;;5103455;28;20080;-78
2022/05/21 06:45:55;;;;;;;43.10;11.10;;;14.40;99.90;;;;;;5087847;28;20036;-78
2022/05/21 06:48:21;;;;;;;31.90;10.35;;;14.50;99.90;;;;;;5103840;28;20028;-79
2022/05/21 06:50:47;;;;;;;37.00;12.18;;;14.40;99.90;;;;;;5108934;28;20019;-77
2022/05/21 06:53:13;;;;;;;34.30;11.93;;;14.60;99.90;;;;;;5077835;28;20099;-79
2022/05/21 06:55:40;;;;;;;41.22;13.55;;;14.70;99.90;;;;;;5075227;28;20083;-79
2022/05/21 06:58:06;;;;;;;35.88;13.55;;;14.60;99.90;;;;;;5102063;28;20119;-77
2022/05/21 07:00:32;;;;;;;30.67;14.90;;;14.60;99.90;;;;;;5088763;28;20036;-80
2022/05/21 07:02:58;;;;;;;41.70;15.32;;;14.70;99.90;;;;;;5091741;28;20069;-79
2022/05/21 07:08:22;;;;;;;41.03;16.15;;;14.90;99.90;;;;;;5105236;28;20028;-78
2022/05/21 07:10:48;;;;;;;34.67;16.23;;;14.80;99.90;;;;;;5104315;28;20032;-78
2022/05/21 07:13:15;;;;;;;38.47;15.27;;;14.60;99.90;;;;;;5100996;28;20022;-78
2022/05/21 07:15:42;;;;;;;33.65;15.30;;;14.90;99.90;;;;;;5111707;28;20460;-77
2022/05/21 07:18:08;;;;;;;25.92;12.20;;;15.00;99.90;;;;;;5103236;28;20073;-77
2022/05/21 07:20:34;;;;;;;36.53;12.38;;;15.10;99.90;;;;;;5112904;28;20418;-78
2022/05/21 07:23:00;;;;;;;30.70;12.10;;;14.80;99.90;;;;;;5098883;28;20023;-77
2022/05/21 07:25:29;;;;;;;36.78;13.07;;;14.80;99.90;;;;;;5107730;28;20044;-77
2022/05/21 07:27:55;;;;;;;31.00;12.30;;;15.10;99.90;;;;;;5099681;28;20031;-78
2022/05/21 07:30:21;;;;;;;31.40;12.85;;;15.20;99.90;;;;;;5111225;28;20032;-74
2022/05/21 07:32:50;;;;;;;36.45;13.10;;;15.00;99.90;;;;;;5099587;28;20024;-73
2022/05/21 07:35:18;;;;;;;29.85;12.07;;;15.10;99.90;;;;;;5109652;28;20028;-74
2022/05/21 07:37:44;;;;;;;37.28;13.40;;;15.20;99.90;;;;;;5106201;28;20028;-75
2022/05/21 07:40:12;;;;;;;39.72;12.73;;;15.40;99.90;;;;;;5102436;27;20020;-75
2022/05/21 07:42:38;;;;;;;28.08;10.10;;;15.50;99.90;;;;;;5104148;28;20031;-75
2022/05/21 07:45:09;;;;;;;34.35;12.00;;;15.20;99.90;;;;;;5110951;28;20030;-75
2022/05/21 07:47:35;;;;;;;31.80;12.35;;;15.40;99.90;;;;;;5114413;28;20475;-75
2022/05/21 07:50:01;;;;;;;40.67;12.23;;;15.20;99.90;;;;;;5103279;28;20028;-75
2022/05/21 07:52:28;;;;;;;35.50;12.27;;;15.10;99.90;;;;;;5110712;28;20023;-74
2022/05/21 07:54:55;;;;;;;32.80;11.93;;;15.00;99.90;;;;;;5094171;28;20039;-75
2022/05/21 07:57:20;;;;;;;33.90;12.05;;;15.10;99.90;;;;;;5093553;28;20024;-75
2022/05/21 07:59:47;;;;;;;27.48;11.50;;;15.30;99.90;;;;;;5092657;28;20101;-75
2022/05/21 08:02:15;;;;;;;44.50;12.05;;;15.50;99.90;;;;;;5095740;28;20039;-75
2022/05/21 08:04:45;;;;;;;31.65;11.05;;;15.40;99.90;;;;;;5094228;28;20407;-74
2022/05/21 08:07:12;;;;;;;28.88;12.00;;;15.40;99.90;;;;;;5095836;28;20024;-75
2022/05/21 08:09:38;;;;;;;36.83;14.43;;;15.50;99.90;;;;;;5095776;28;20552;-75
2022/05/21 08:12:07;;;;;;;29.15;13.20;;;15.70;99.90;;;;;;5095769;28;20483;-74
2022/05/21 08:14:33;;;;;;;31.33;13.90;;;15.50;99.90;;;;;;5094054;28;20429;-74
2022/05/21 08:16:59;;;;;;;36.72;14.00;;;15.80;99.90;;;;;;5077431;28;20507;-74
2022/05/21 08:19:25;;;;;;;35.65;12.38;;;16.10;99.90;;;;;;5094563;28;20024;-75
2022/05/21 08:21:51;;;;;;;34.58;13.93;;;16.00;99.90;;;;;;5095557;28;20081;-75
2022/05/21 08:27:02;;;;;;;26.80;11.77;;;16.40;99.90;;;;;;5095582;28;20036;-76
2022/05/21 08:29:32;;;;;;;30.80;14.52;;;16.40;99.90;;;;;;5095243;28;20484;-74
2022/05/21 08:32:00;;;;;;;30.30;14.32;;;16.30;99.90;;;;;;5095152;28;20036;-75
2022/05/21 08:34:27;;;;;;;32.80;13.85;;;16.40;99.90;;;;;;5095208;28;20036;-76
2022/05/21 08:36:53;;;;;;;30.45;13.80;;;16.20;99.90;;;;;;5093874;28;20028;-76
2022/05/21 08:39:21;;;;;;;37.92;14.43;;;15.90;99.90;;;;;;5095270;28;20114;-75
2022/05/21 08:41:54;;;;;;;34.78;15.07;;;16.30;99.90;;;;;;5093586;28;20031;-75
2022/05/21 08:44:41;;;;;;;32.33;14.10;;;16.40;99.90;;;;;;5095126;28;20032;-75
2022/05/21 08:47:23;;;;;;;31.67;13.13;;;16.30;99.90;;;;;;5089616;28;20039;-77
2022/05/21 08:50:02;;;;;;;;;;;16.50;99.90;;;;;;5094707;28;20028;-75
2022/05/21 08:53:06;;;;;;;36.80;13.60;;;16.20;99.90;;;;;;5098873;28;19915;-76
2022/05/21 08:55:42;;;;;;;20.83;11.88;;;16.40;99.90;;;;;;5089186;28;20048;-76
2022/05/21 08:58:35;;;;;;;31.38;11.23;;;16.70;99.90;;;;;;5100388;28;20119;-77
2022/05/21 09:01:01;;;;;;;34.08;12.52;;;16.60;99.90;;;;;;5109271;28;20020;-75
2022/05/21 09:03:27;;;;;;;32.13;14.30;;;16.50;99.90;;;;;;5100849;28;20023;-77
2022/05/21 09:06:17;;;;;;;30.27;13.13;;;16.80;99.90;;;;;;5103375;28;20115;-77
2022/05/21 09:09:14;;;;;;;30.52;12.23;;;16.80;99.90;;;;;;5110994;28;20035;-76
2022/05/21 09:11:46;;;;;;;26.60;10.95;;;17.10;99.90;;;;;;5103141;28;20070;-77
2022/05/21 09:14:25;;;;;;;27.58;10.65;;;16.70;99.90;;;;;;5101147;28;20036;-76
2022/05/21 09:16:56;;;;;;;30.20;11.55;;;16.50;99.90;;;;;;5102941;28;20401;-76
2022/05/21 09:19:28;;;;;;;26.75;11.82;;;16.70;99.90;;;;;;5107482;28;20032;-74
2022/05/21 09:21:59;;;;;;;;;;;16.60;99.90;;;;;;5104934;28;20031;-76
2022/05/21 09:24:42;;;;;;;27.10;8.75;;;17.00;99.90;;;;;;5098945;28;20417;-76
2022/05/21 09:27:33;;;;;;;18.20;8.10;;;16.90;99.90;;;;;;5082161;28;20039;-76
2022/05/21 09:30:20;;;;;;;33.35;12.77;;;16.90;99.90;;;;;;5102042;28;20024;-76
2022/05/21 09:32:52;;;;;;;31.92;13.07;;;17.30;99.90;;;;;;5075507;28;20013;-76
2022/05/21 09:35:25;;;;;;;;;;;17.60;99.90;;;;;;5072615;28;20041;-76
2022/05/21 09:37:52;;;;;;;22.38;13.02;;;17.50;99.90;;;;;;5071172;28;19991;-75
2022/05/21 09:40:25;;;;;;;33.95;13.80;;;17.50;99.90;;;;;;5077013;28;20044;-76
2022/05/21 09:45:38;;;;;;;28.35;12.77;;;17.80;99.90;;;;;;5089041;28;20084;-75
2022/05/21 09:48:03;;;;;;;27.33;14.00;;;17.70;99.90;;;;;;5078350;28;20028;-76
2022/05/21 09:50:42;;;;;;;29.40;13.18;;;17.50;99.90;;;;;;5080474;28;20024;-76
2022/05/21 09:53:33;;;;;;;27.02;14.35;;;17.80;99.90;;;;;;5086669;28;20051;-73
2022/05/21 09:56:04;;;;;;;23.95;13.00;;;18.10;99.90;;;;;;5102000;28;20046;-76
2022/05/21 09:58:41;;;;;;;28.95;14.93;;;17.90;99.90;;;;;;5109568;28;20061;-76
2022/05/21 10:01:12;;;;;;;16.48;12.32;;;17.90;99.90;;;;;;5081397;28;20032;-77
2022/05/21 10:03:51;;;;;;;21.30;11.30;;;18.20;99.90;;;;;;5112772;28;20032;-75
2022/05/21 10:06:25;;;;;;;28.70;11.85;;;18.30;99.90;;;;;;5098016;28;20089;-77
2022/05/21 10:11:56;;;;;;;19.85;9.35;;;18.70;99.90;;;;;;5092515;28;20437;-77
2022/05/21 10:14:40;;;;;;;23.08;10.38;;;19.00;99.90;;;;;;5097360;28;20492;-78
2022/05/21 10:17:27;;;;;;;21.98;10.88;;;18.90;99.90;;;;;;5087495;28;20036;-77
2022/05/21 10:20:14;;;;;;;21.90;9.77;;;19.00;99.90;;;;;;5102426;28;20103;-77
2022/05/21 10:23:05;;;;;;;24.70;8.25;;;18.60;99.90;;;;;;5109443;28;20472;-75
2022/05/21 10:26:12;;;;;;;27.95;10.98;;;18.80;99.90;;;;;;5100638;28;20023;-77
2022/05/21 10:29:06;;;;;;;18.77;9.95;;;18.60;99.90;;;;;;5095426;28;20032;-77
2022/05/21 10:31:42;;;;;;;14.38;6.80;;;18.90;99.90;;;;;;5105266;28;20116;-78
2022/05/21 10:34:35;;;;;;;19.10;8.73;;;19.20;99.90;;;;;;5105223;28;20027;-77
2022/05/21 10:37:19;;;;;;;20.23;8.32;;;18.90;99.90;;;;;;5094682;28;20039;-77
2022/05/21 10:40:08;;;;;;;18.45;8.32;;;19.40;99.90;;;;;;5103228;28;20189;-77
2022/05/21 10:43:03;;;;;;;13.38;6.72;;;19.70;99.90;;;;;;5107461;28;20387;-77
2022/05/21 10:45:39;;;;;;;17.15;6.00;;;19.70;99.90;;;;;;5071838;28;20358;-77
2022/05/21 10:48:17;;;;;;;16.08;6.70;;;19.70;99.90;;;;;;5071055;28;20479;-78
2022/05/21 10:50:54;;;;;;;14.10;5.95;;;19.10;99.90;;;;;;5072637;28;20119;-72
2022/05/21 10:53:26;;;;;;;13.75;5.68;;;18.60;99.90;;;;;;5072154;28;20461;-74
2022/05/21 10:55:58;;;;;;;18.50;6.32;;;18.40;99.90;;;;;;5070869;28;20123;-76
2022/05/21 10:58:51;;;;;;;20.88;6.80;;;18.60;99.90;;;;;;5071016;28;20033;-74
2022/05/21 11:01:47;;;;;;;19.65;7.57;;;19.10;99.90;;;;;;5071304;28;20421;-76
2022/05/21 11:04:27;;;;;;;18.70;7.07;;;19.20;99.90;;;;;;5085378;28;20028;-74
2022/05/21 11:07:01;;;;;;;21.92;7.13;;;19.20;99.90;;;;;;5092848;28;20024;-74
2022/05/21 11:10:00;;;;;;;15.30;6.25;;;19.70;99.90;;;;;;5091065;28;20400;-74
2022/05/21 11:12:52;;;;;;;16.35;6.18;;;19.30;99.90;;;;;;5092617;28;20050;-73
2022/05/21 11:15:33;;;;;;;;;;;19.00;99.90;;;;;;5092920;28;20094;-74
2022/05/21 11:18:05;;;;;;;26.88;7.30;;;19.10;99.90;;;;;;5092628;28;19912;-74
2022/05/21 11:20:43;;;;;;;21.45;7.00;;;19.70;99.90;;;;;;5092448;28;20465;-74
2022/05/21 11:23:21;;;;;;;20.60;7.85;;;20.00;99.50;;;;;;5091230;28;20028;-74
2022/05/21 11:25:58;;;;;;;15.98;7.70;;;20.10;99.50;;;;;;5092636;28;20422;-74
2022/05/21 11:28:27;;;;;;;17.17;7.15;;;20.20;99.40;;;;;;5092473;28;20358;-74
2022/05/21 11:37:20;;;;;;;24.48;7.20;;;19.80;99.90;;;;;;5092384;28;20020;-74
2022/05/21 11:39:44;;;;;;;20.42;7.78;;;19.90;99.20;;;;;;5092673;28;20059;-74
2022/05/21 11:42:14;;;;;;;19.58;6.88;;;20.30;99.90;;;;;;5092512;28;20031;-74
2022/05/21 11:44:55;;;;;;;21.73;8.02;;;20.60;99.90;;;;;;5095507;28;20042;-74
2022/05/21 11:47:25;;;;;;;17.05;8.20;;;21.30;98.20;;;;;;5096399;28;20032;-74
2022/05/21 11:50:10;;;;;;;16.05;7.80;;;21.60;97.00;;;;;;5096264;28;20051;-75
2022/05/21 11:52:36;;;;;;;18.13;6.70;;;21.20;96.80;;;;;;5094978;28;20035;-74
2022/05/21 11:55:24;;;;;;;19.30;6.95;;;21.30;97.90;;;;;;5095467;28;20147;-74
2022/05/21 11:57:53;;;;;;;22.55;7.57;;;22.00;98.00;;;;;;5096152;28;20039;-74
2022/05/21 12:00:19;;;;;;;17.33;8.15;;;21.70;96.50;;;;;;5094850;28;20047;-74
2022/05/21 12:02:53;;;;;;;18.88;8.90;;;21.40;95.40;;;;;;5095856;28;20464;-74
2022/05/21 12:08:27;;;;;;;14.53;6.77;;;21.70;94.40;;;;;;5095992;28;20029;-74
2022/05/21 12:11:32;;;;;;;15.27;7.30;;;21.50;95.40;;;;;;5092824;28;20036;-74
2022/05/21 12:14:06;;;;;;;16.27;7.22;;;22.30;94.70;;;;;;5094320;28;20028;-74
2022/05/21 12:16:31;;;;;;;15.10;8.65;;;22.30;94.10;;;;;;5094110;28;20044;-74
2022/05/21 12:18:59;;;;;;;16.00;7.45;;;22.80;93.60;;;;;;5094362;28;20043;-74
2022/05/21 12:21:28;;;;;;;13.32;7.50;;;22.60;93.10;;;;;;5095540;28;20572;-74
2022/05/21 12:23:55;;;;;;;16.83;6.45;;;22.10;92.40;;;;;;5095436;28;20027;-74
2022/05/21 12:26:30;;;;;;;16.33;7.00;;;21.80;93.50;;;;;;5095303;28;20024;-75
2022/05/21 12:28:55;;;;;;;23.35;8.02;;;22.20;94.00;;;;;;5094243;28;20064;-74
2022/05/21 12:31:52;;;;;;;20.40;7.28;;;22.30;94.60;;;;;;5095131;28;20144;-75
2022/05/21 12:34:36;;;;;;;17.58;8.07;;;22.70;92.70;;;;;;5068930;28;20051;-75
2022/05/21 12:37:08;;;;;;;17.90;7.95;;;22.70;92.80;;;;;;5095467;28;20040;-75
2022/05/21 12:39:55;;;;;;;13.55;6.80;;;23.30;92.10;;;;;;5095006;28;20384;-75
2022/05/21 12:42:23;;;;;;;14.40;6.13;;;23.30;91.80;;;;;;5093966;28;20024;-74
2022/05/21 12:44:49;;;;;;;15.05;6.18;;;22.70;92.10;;;;;;5094983;28;20032;-75
2022/05/21 12:47:33;;;;;;;14.38;5.50;;;22.50;91.90;;;;;;5087241;28;20012;-75
2022/05/21 12:50:03;;;;;;;15.68;5.75;;;21.70;91.60;;;;;;5074906;28;20488;-74
2022/05/21 12:52:41;;;;;;;17.08;6.50;;;21.60;91.90;;;;;;5074904;28;20033;-74
2022/05/21 12:55:32;;;;;;;16.42;7.63;;;21.40;93.00;;;;;;5073169;28;20045;-75
2022/05/21 12:58:17;;;;;;;14.65;7.55;;;21.10;93.30;;;;;;5074692;28;20028;-74
2022/05/21 13:00:55;;;;;;;14.13;6.40;;;21.90;93.40;;;;;;5074518;28;20033;-74
2022/05/21 13:03:23;;;;;;;14.30;6.63;;;23.20;92.20;;;;;;5081252;28;20035;-75
2022/05/21 13:06:01;;;;;;;11.23;4.68;;;22.50;91.00;;;;;;5094434;28;20095;-74
2022/05/21 13:08:29;;;;;;;11.27;4.78;;;22.20;91.40;;;;;;5094509;28;20074;-74
2022/05/21 13:10:55;;;;;;;16.73;4.50;;;22.30;90.50;;;;;;5094456;28;20472;-74
2022/05/21 13:13:23;;;;;;;14.88;5.20;;;22.40;90.90;;;;;;5093245;28;20031;-74
2022/05/21 13:16:01;;;;;;;13.10;5.57;;;22.50;90.90;;;;;;5094404;28;20101;-74
2022/05/21 13:18:35;;;;;;;13.57;6.50;;;22.80;91.10;;;;;;5094267;28;20499;-74
2022/05/21 13:21:20;;;;;;;15.57;6.90;;;23.10;91.90;;;;;;5093110;28;20036;-74
2022/05/21 13:23:57;;;;;;;12.77;5.75;;;22.10;91.80;;;;;;5094163;28;20405;-75
2022/05/21 13:26:29;;;;;;;14.48;6.05;;;22.40;92.70;;;;;;5094263;28;20081;-74